createdAt,value
2023-04-06T00:03:49.267Z,4.4
2023-04-06T00:18:59.934Z,4.3
2023-04-06T00:34:09.490Z,4.4
2023-04-06T00:49:18.821Z,4.4
2023-04-06T01:07:53.648Z,5.3
2023-04-06T01:23:05.037Z,4.2
2023-04-06T01:38:13.929Z,3.8
2023-04-06T01:53:23.375Z,3.5
2023-04-06T02:08:32.663Z,3.3
2023-04-06T02:23:42.187Z,3.2
2023-04-06T02:38:51.738Z,3.2
2023-04-06T02:54:01.680Z,3.1
2023-04-06T03:09:10.920Z,3
2023-04-06T03:24:20.517Z,3
2023-04-06T03:39:29.842Z,3
2023-04-06T03:54:39.617Z,2.9
2023-04-06T04:09:49.019Z,2.9
2023-04-06T04:24:58.273Z,2.9
2023-04-06T04:40:08.137Z,2.9
2023-04-06T04:55:17.760Z,2.8
2023-04-06T05:10:27.812Z,2.8
2023-04-06T05:25:37.792Z,2.9
2023-04-06T05:40:47.240Z,3
2023-04-06T05:55:57.070Z,3.2
2023-04-06T06:11:07.242Z,3.4
2023-04-06T06:26:17.392Z,3.6
2023-04-06T06:41:27.967Z,3.8
2023-04-06T06:56:37.691Z,4.1
2023-04-06T07:11:47.328Z,4.3
2023-04-06T07:26:57.365Z,4.6
2023-04-06T07:42:07.211Z,4.9
2023-04-06T07:57:16.998Z,5.2
2023-04-06T08:12:27.189Z,5.6
2023-04-06T08:27:37.230Z,5.9
2023-04-06T08:42:48.235Z,6.3
2023-04-06T08:57:58.244Z,6.6
2023-04-06T09:13:08.272Z,7.1
2023-04-06T09:28:18.487Z,7.5
2023-04-06T09:43:28.867Z,8
2023-04-06T09:58:38.891Z,8.5
2023-04-06T10:13:48.930Z,9
2023-04-06T10:28:58.776Z,9.3
2023-04-06T10:44:09.109Z,9.5
2023-04-06T10:59:20.272Z,10
2023-04-06T11:14:30.524Z,10.3
2023-04-06T11:29:42.409Z,10.8
2023-04-06T11:44:52.737Z,11.5
2023-04-06T12:00:02.767Z,11.8
2023-04-06T12:15:13.714Z,13.5
2023-04-06T12:30:24.561Z,14.6
2023-04-06T12:45:39.857Z,15.3
2023-04-06T13:00:51.133Z,15.8
2023-04-06T13:16:01.864Z,16.4
2023-04-06T13:31:11.951Z,17
2023-04-06T13:46:22.981Z,17.7
2023-04-06T14:01:33.186Z,18.3
2023-04-06T14:16:43.387Z,18.7
2023-04-06T14:31:53.666Z,19.5
2023-04-06T14:47:03.970Z,19.8
2023-04-06T15:02:16.568Z,19.9
2023-04-06T15:17:27.813Z,20.1
2023-04-06T15:32:38.310Z,21
2023-04-06T15:47:50.051Z,22
2023-04-06T16:03:00.533Z,22.7
2023-04-06T16:18:10.264Z,20.4
2023-04-06T16:33:19.708Z,20.4
2023-04-06T16:48:28.781Z,18.2
2023-04-06T17:03:36.416Z,16.1
2023-04-06T17:18:47.151Z,15
2023-04-06T17:33:56.036Z,14.3
2023-04-06T17:49:05.205Z,13.6
2023-04-06T18:04:14.415Z,13.2
2023-04-06T18:19:23.969Z,12.7
2023-04-06T18:34:33.036Z,12.3
2023-04-06T18:49:42.434Z,12
2023-04-06T19:04:52.636Z,11.8
2023-04-06T19:20:02.890Z,11.6
2023-04-06T19:35:12.752Z,11.4
2023-04-06T19:50:22.538Z,11.1
2023-04-06T20:05:32.380Z,10.9
2023-04-06T20:20:41.531Z,10.7
2023-04-06T20:35:50.923Z,10.5
2023-04-06T20:51:00.424Z,10.3
2023-04-06T21:06:09.918Z,10.1
2023-04-06T21:21:19.344Z,9.9
2023-04-06T21:36:28.269Z,9.8
2023-04-06T21:51:38.351Z,9.5
2023-04-06T22:06:47.948Z,9.3
2023-04-06T22:21:57.386Z,9.1
2023-04-06T22:37:06.626Z,9
2023-04-06T22:52:16.029Z,8.8
2023-04-06T23:07:26.277Z,8.5
2023-04-06T23:22:35.931Z,8.4
2023-04-06T23:37:45.775Z,8.2
2023-04-06T23:52:55.384Z,8.1
